createdAt,value
2022-09-21T05:33:46.036Z,13.95
2022-09-21T05:36:00.313Z,14.26
2022-09-21T05:38:09.709Z,14.52
2022-09-21T05:40:14.947Z,14.64
2022-09-21T05:42:18.824Z,14.81
2022-09-21T05:44:22.755Z,14.90
2022-09-21T05:46:38.846Z,14.99
2022-09-21T05:48:50.818Z,15.07
2022-09-21T05:51:03.425Z,15.17
2022-09-21T05:53:20.838Z,15.26
2022-09-21T05:55:45.836Z,15.33
2022-09-21T05:57:57.245Z,15.40
2022-09-21T06:00:09.464Z,15.42
2022-09-21T06:02:24.446Z,15.48
2022-09-21T06:04:29.955Z,15.52
2022-09-21T06:06:33.547Z,15.53
2022-09-21T06:08:37.356Z,15.51
2022-09-21T06:10:40.847Z,15.48
2022-09-21T06:12:44.667Z,15.46
2022-09-21T06:14:47.744Z,15.48
2022-09-21T06:16:51.059Z,15.49
2022-09-21T06:18:54.316Z,15.57
2022-09-21T06:20:58.982Z,15.63
2022-09-21T06:23:02.778Z,15.64
2022-09-21T06:25:07.949Z,15.63
2022-09-21T06:27:11.236Z,15.64
2022-09-21T06:29:18.848Z,15.64
2022-09-21T06:31:25.096Z,15.66
2022-09-21T06:33:28.816Z,15.64
2022-09-21T06:35:33.309Z,15.68
2022-09-21T06:37:40.516Z,15.70
2022-09-21T06:39:43.709Z,15.70
2022-09-21T06:41:47.098Z,15.65
2022-09-21T06:43:55.027Z,15.61
2022-09-21T06:46:00.391Z,15.62
2022-09-21T06:48:04.513Z,15.66
2022-09-21T06:50:11.370Z,15.72
2022-09-21T06:52:15.220Z,15.73
2022-09-21T06:54:19.921Z,15.70
2022-09-21T06:56:23.335Z,15.72
2022-09-21T06:58:29.699Z,15.78
2022-09-21T07:00:33.806Z,15.83
2022-09-21T07:02:37.202Z,15.85
2022-09-21T07:04:40.806Z,15.90
2022-09-21T07:06:44.173Z,15.93
2022-09-21T07:11:16.559Z,15.97
2022-09-21T07:13:20.169Z,16.00
2022-09-21T07:15:25.075Z,15.99
2022-09-21T07:17:33.308Z,16.04
2022-09-21T07:19:37.519Z,16.02
2022-09-21T07:21:42.280Z,16.08
2022-09-21T07:23:45.641Z,16.10
2022-09-21T07:25:50.848Z,16.11
2022-09-21T07:27:55.594Z,16.16
2022-09-21T07:29:59.264Z,16.19
2022-09-21T07:32:04.798Z,16.23
2022-09-21T07:34:08.298Z,16.22
2022-09-21T07:36:15.411Z,16.24
2022-09-21T07:38:20.441Z,16.26
2022-09-21T07:40:25.333Z,16.29
2022-09-21T07:42:30.825Z,16.36
2022-09-21T07:44:35.611Z,16.40
2022-09-21T07:46:47.161Z,16.44
2022-09-21T07:48:54.412Z,16.49
2022-09-21T07:51:04.524Z,16.50
2022-09-21T07:53:07.977Z,16.52
2022-09-21T07:55:11.317Z,16.52
2022-09-21T07:57:33.747Z,16.48
2022-09-21T07:59:38.629Z,16.45
2022-09-21T08:01:43.191Z,16.51
2022-09-21T08:03:47.030Z,16.51
2022-09-21T08:05:51.620Z,16.45
2022-09-21T08:07:57.194Z,16.46
2022-09-21T08:10:00.790Z,16.37
2022-09-21T08:12:04.460Z,16.35
2022-09-21T08:14:08.081Z,16.32
2022-09-21T08:16:14.534Z,16.32
2022-09-21T08:18:18.349Z,16.33
2022-09-21T08:20:23.612Z,16.33
2022-09-21T08:22:27.569Z,16.38
2022-09-21T08:24:31.472Z,16.49
2022-09-21T08:26:34.894Z,16.49
2022-09-21T08:28:38.975Z,16.57
2022-09-21T08:30:42.908Z,16.47
2022-09-21T08:32:51.460Z,16.47
2022-09-21T08:34:54.938Z,16.56
2022-09-21T08:36:59.027Z,16.58
2022-09-21T08:39:02.727Z,16.58
2022-09-21T08:41:17.383Z,16.59
2022-09-21T08:43:31.020Z,16.59
2022-09-21T08:45:39.624Z,16.68
2022-09-21T08:47:45.780Z,16.75
2022-09-21T08:49:54.810Z,16.80
2022-09-21T08:52:02.022Z,16.84
2022-09-21T08:54:11.932Z,16.88
2022-09-21T08:56:18.987Z,16.87
2022-09-21T08:58:24.745Z,16.91
2022-09-21T09:00:30.982Z,16.92
2022-09-21T09:02:44.868Z,16.99
2022-09-21T09:04:59.520Z,17.05
2022-09-21T09:07:17.360Z,17.13
2022-09-21T09:09:44.395Z,17.09
2022-09-21T09:12:01.718Z,17.07
2022-09-21T09:14:26.994Z,17.10
2022-09-21T09:16:38.307Z,17.10
2022-09-21T09:18:47.117Z,17.17
2022-09-21T09:21:00.339Z,17.27
2022-09-21T09:23:12.828Z,17.32
2022-09-21T09:25:24.639Z,17.31
2022-09-21T09:27:31.768Z,17.32
2022-09-21T09:29:45.528Z,17.37
2022-09-21T09:31:50.452Z,17.37
2022-09-21T09:34:01.730Z,17.38
2022-09-21T09:36:09.150Z,17.40
2022-09-21T09:38:23.977Z,17.48
2022-09-21T09:40:54.742Z,17.48
2022-09-21T09:43:05.043Z,17.54
2022-09-21T09:45:39.904Z,17.57
2022-09-21T09:47:59.193Z,17.59
2022-09-21T09:50:08.120Z,17.62
2022-09-21T09:52:17.453Z,17.63
2022-09-21T09:54:31.151Z,17.70
2022-09-21T09:56:34.451Z,17.74
2022-09-21T09:58:43.669Z,17.80
2022-09-21T10:00:49.040Z,17.83
2022-09-21T10:02:56.215Z,17.81
2022-09-21T10:05:08.388Z,17.82
2022-09-21T10:07:20.971Z,17.83
2022-09-21T10:09:29.076Z,17.81
2022-09-21T10:11:39.866Z,17.87
2022-09-21T10:13:44.444Z,17.90
2022-09-21T10:15:51.752Z,17.92
2022-09-21T10:18:03.175Z,17.94
2022-09-21T10:20:12.725Z,17.96
2022-09-21T10:22:18.626Z,17.99
2022-09-21T10:24:25.776Z,18.01
2022-09-21T10:26:33.923Z,18.03
2022-09-21T10:28:38.371Z,18.04
2022-09-21T10:30:41.803Z,18.08
2022-09-21T10:32:56.857Z,18.10
2022-09-21T10:35:15.864Z,18.11
2022-09-21T10:37:28.809Z,18.17
2022-09-21T10:39:34.020Z,18.20
2022-09-21T10:41:38.869Z,18.26
2022-09-21T10:43:44.588Z,18.26
2022-09-21T10:45:55.445Z,18.25
2022-09-21T10:48:08.481Z,18.28
2022-09-21T10:50:25.863Z,18.29
2022-09-21T10:52:36.392Z,18.35
2022-09-21T10:54:43.028Z,18.38
2022-09-21T10:56:56.340Z,18.40
2022-09-21T10:59:15.073Z,18.43
2022-09-21T11:01:24.523Z,18.45
2022-09-21T11:03:46.161Z,18.48
2022-09-21T11:05:51.947Z,18.48
2022-09-21T11:07:59.821Z,18.51
2022-09-21T11:10:13.331Z,18.50
2022-09-21T11:12:32.724Z,18.49
2022-09-21T11:14:46.724Z,18.51
2022-09-21T11:16:56.801Z,18.52
2022-09-21T11:19:07.310Z,18.51
2022-09-21T11:21:18.208Z,18.52
2022-09-21T11:23:40.994Z,18.54
2022-09-21T11:25:51.221Z,18.58
2022-09-21T11:28:01.689Z,18.60
2022-09-21T11:30:08.328Z,18.61
2022-09-21T11:32:33.117Z,18.63
2022-09-21T11:35:00.206Z,18.55
2022-09-21T11:37:15.215Z,18.66
2022-09-21T11:39:30.348Z,18.63
2022-09-21T11:41:50.640Z,18.63
2022-09-21T11:44:20.079Z,18.64
2022-09-21T11:46:31.994Z,18.67
2022-09-21T11:48:57.852Z,18.70
2022-09-21T11:51:15.534Z,18.70
2022-09-21T11:53:36.155Z,18.74
2022-09-21T11:55:55.344Z,18.70
2022-09-21T11:58:10.308Z,18.69
2022-09-21T12:00:18.206Z,18.72
2022-09-21T12:02:37.876Z,18.74
2022-09-21T12:04:49.531Z,18.76
2022-09-21T12:07:08.416Z,18.73
2022-09-21T12:09:36.176Z,18.71
2022-09-21T12:11:46.944Z,18.71
2022-09-21T12:13:59.245Z,18.70
2022-09-21T12:16:12.722Z,18.72
2022-09-21T12:18:24.796Z,18.76
2022-09-21T12:20:38.939Z,18.72
2022-09-21T12:22:46.578Z,18.73
2022-09-21T12:24:54.151Z,18.73
2022-09-21T12:27:00.672Z,18.78
2022-09-21T12:29:14.709Z,18.78
2022-09-21T12:31:24.688Z,18.74
2022-09-21T12:33:36.753Z,18.79
2022-09-21T12:35:49.125Z,18.81
2022-09-21T12:37:59.176Z,18.79
2022-09-21T12:40:07.784Z,18.81
2022-09-21T12:42:24.422Z,18.79
2022-09-21T12:44:52.266Z,18.82
2022-09-21T12:47:09.784Z,18.84
2022-09-21T12:49:20.850Z,18.85
2022-09-21T12:51:30.385Z,18.86
2022-09-21T12:53:37.820Z,18.87
2022-09-21T12:55:47.925Z,18.89
2022-09-21T12:58:14.594Z,18.93
2022-09-21T13:00:22.666Z,18.94
2022-09-21T13:02:35.358Z,18.96
2022-09-21T13:04:50.397Z,18.97
2022-09-21T13:07:31.108Z,18.94
2022-09-21T13:09:35.711Z,19.02
2022-09-21T13:11:54.075Z,19.04
2022-09-21T13:14:01.261Z,19.05
2022-09-21T13:16:08.048Z,19.13
2022-09-21T13:18:22.224Z,19.13
2022-09-21T13:20:25.498Z,19.14
2022-09-21T13:22:33.465Z,19.17
2022-09-21T13:24:36.868Z,19.19
2022-09-21T13:26:42.412Z,19.23
2022-09-21T13:29:26.239Z,19.27
2022-09-21T13:31:59.566Z,19.27
2022-09-21T13:34:22.470Z,19.32
2022-09-21T13:36:34.513Z,19.32
2022-09-21T13:39:05.089Z,19.34
2022-09-21T13:41:40.257Z,19.36
2022-09-21T13:44:05.239Z,19.38
2022-09-21T13:46:08.760Z,19.39
2022-09-21T13:48:27.578Z,19.41
2022-09-21T13:50:39.866Z,19.41
2022-09-21T13:52:48.570Z,19.41
2022-09-21T13:54:54.264Z,19.43
2022-09-21T13:57:09.611Z,19.44
2022-09-21T13:59:23.180Z,19.45
2022-09-21T14:01:46.642Z,19.46
2022-09-21T14:03:57.392Z,19.47
2022-09-21T14:06:06.530Z,19.44
2022-09-21T14:08:23.525Z,19.47
2022-09-21T14:10:27.654Z,19.50
2022-09-21T14:12:39.467Z,19.51
2022-09-21T14:14:45.624Z,19.49
2022-09-21T14:16:58.283Z,19.57
2022-09-21T14:19:05.113Z,19.56
2022-09-21T14:21:19.621Z,19.55
2022-09-21T14:23:29.983Z,19.55
2022-09-21T14:25:53.266Z,19.53
2022-09-21T14:28:01.238Z,19.56
2022-09-21T14:30:08.427Z,19.58
2022-09-21T14:32:17.757Z,19.65
2022-09-21T14:34:26.856Z,19.69
2022-09-21T14:36:37.497Z,19.74
2022-09-21T14:38:52.602Z,19.80
2022-09-21T14:41:00.849Z,19.83
2022-09-21T14:43:09.819Z,19.86
2022-09-21T14:45:20.360Z,19.87
2022-09-21T14:47:52.017Z,19.88
2022-09-21T14:50:08.139Z,19.87
2022-09-21T14:52:29.738Z,19.82
2022-09-21T14:54:42.410Z,19.81
2022-09-21T14:57:00.392Z,19.81
2022-09-21T14:59:21.148Z,19.82
2022-09-21T15:01:37.831Z,19.81
2022-09-21T15:04:04.354Z,19.82
2022-09-21T15:06:38.056Z,19.81
2022-09-21T15:09:11.958Z,19.81
2022-09-21T15:11:22.249Z,19.80
2022-09-21T15:13:58.355Z,19.78
2022-09-21T15:16:17.844Z,19.80
2022-09-21T15:18:23.118Z,19.79
2022-09-21T15:20:28.209Z,19.80
2022-09-21T15:22:32.733Z,19.76
2022-09-21T15:24:35.831Z,19.72
2022-09-21T15:26:40.858Z,19.69
2022-09-21T15:29:13.969Z,19.65
2022-09-21T15:31:12.702Z,19.64
2022-09-21T15:33:16.189Z,19.65
2022-09-21T15:35:22.066Z,19.60
2022-09-21T15:37:25.372Z,19.55
2022-09-21T15:39:32.224Z,19.57
2022-09-21T15:41:41.191Z,19.54
2022-09-21T15:43:48.065Z,19.54
2022-09-21T15:45:55.962Z,19.53
2022-09-21T15:48:00.244Z,19.47
2022-09-21T15:50:04.010Z,19.46
2022-09-21T15:52:12.933Z,19.44
2022-09-21T15:54:27.012Z,19.44
2022-09-21T15:56:32.074Z,19.43
2022-09-21T15:58:38.040Z,19.38
2022-09-21T16:00:41.324Z,19.37
2022-09-21T16:02:53.070Z,19.36
2022-09-21T16:04:57.423Z,19.33
2022-09-21T16:07:04.913Z,19.34
2022-09-21T16:09:35.257Z,19.34
2022-09-21T16:11:39.714Z,19.32
2022-09-21T16:14:00.636Z,19.28
2022-09-21T16:16:06.040Z,19.24
2022-09-21T16:18:32.329Z,19.20
2022-09-21T16:20:45.707Z,19.21
2022-09-21T16:22:50.784Z,19.21
2022-09-21T16:24:56.404Z,19.22
2022-09-21T16:27:03.328Z,19.17
2022-09-21T16:29:23.488Z,19.17
2022-09-21T16:31:36.161Z,19.16
2022-09-21T16:33:42.731Z,19.17
2022-09-21T16:35:46.202Z,19.18
2022-09-21T16:37:50.790Z,19.16
2022-09-21T16:39:54.059Z,19.17
2022-09-21T16:42:00.162Z,19.17
2022-09-21T16:44:04.869Z,19.13
2022-09-21T16:46:08.595Z,19.09
2022-09-21T16:48:13.622Z,19.07
2022-09-21T16:50:18.932Z,19.04
2022-09-21T16:52:23.108Z,19.03
2022-09-21T16:54:27.275Z,19.00
2022-09-21T16:56:31.315Z,18.98
2022-09-21T16:58:34.305Z,18.97
2022-09-21T17:00:42.892Z,18.97
2022-09-21T17:02:45.644Z,18.97
2022-09-21T17:04:48.988Z,18.95
2022-09-21T17:06:52.720Z,18.94
2022-09-21T17:08:55.640Z,18.92
2022-09-21T17:11:00.018Z,18.93
2022-09-21T17:13:04.392Z,18.87
2022-09-21T17:15:09.906Z,18.83
2022-09-21T17:17:18.318Z,18.81
2022-09-21T17:19:21.782Z,18.78
2022-09-21T17:21:25.181Z,18.77
2022-09-21T17:23:29.269Z,18.77
2022-09-21T17:25:32.974Z,18.77
2022-09-21T17:27:36.792Z,18.71
2022-09-21T17:29:41.262Z,18.70
2022-09-21T17:31:44.449Z,18.66
2022-09-21T17:33:50.539Z,18.65
2022-09-21T17:35:55.640Z,18.67
2022-09-21T17:37:59.219Z,18.65
2022-09-21T17:40:04.955Z,18.65
2022-09-21T17:42:19.060Z,18.60
2022-09-21T17:44:42.400Z,18.58
2022-09-21T17:46:52.271Z,18.56
2022-09-21T17:48:57.613Z,18.53
2022-09-21T17:51:01.103Z,18.50
2022-09-21T17:53:22.327Z,18.49
2022-09-21T17:55:25.819Z,18.50
2022-09-21T17:57:40.468Z,18.49
2022-09-21T17:59:48.671Z,18.46
2022-09-21T18:01:52.151Z,18.45
2022-09-21T18:03:57.446Z,18.41
2022-09-21T18:06:01.613Z,18.40
2022-09-21T18:08:05.518Z,18.42
2022-09-21T18:10:14.032Z,18.39
2022-09-21T18:12:46.358Z,18.34
2022-09-21T18:15:00.344Z,18.33
2022-09-21T18:17:16.230Z,18.28
2022-09-21T18:19:35.265Z,18.27
2022-09-21T18:21:42.265Z,18.27
2022-09-21T18:24:08.034Z,18.25
2022-09-21T18:26:16.493Z,18.26
2022-09-21T18:28:24.603Z,18.27
2022-09-21T18:30:28.504Z,18.29
2022-09-21T18:32:55.401Z,18.25
2022-09-21T18:35:13.278Z,18.22
2022-09-21T18:37:23.562Z,18.23
2022-09-21T18:39:37.510Z,18.25
2022-09-21T18:41:50.039Z,18.22
2022-09-21T18:44:05.330Z,18.22
2022-09-21T18:46:14.827Z,18.19
2022-09-21T18:48:24.454Z,18.20
2022-09-21T18:50:36.360Z,18.15
2022-09-21T18:52:51.999Z,18.17
2022-09-21T18:54:55.354Z,18.18
2022-09-21T18:56:59.124Z,18.17
2022-09-21T18:59:02.908Z,18.14
2022-09-21T19:01:06.796Z,18.12
2022-09-21T19:03:18.218Z,18.11
2022-09-21T19:05:22.831Z,18.09
2022-09-21T19:07:39.892Z,18.07
2022-09-21T19:09:52.269Z,18.05
2022-09-21T19:12:03.677Z,18.07
2022-09-21T19:14:18.312Z,18.04
2022-09-21T19:16:30.203Z,18.02
2022-09-21T19:18:41.662Z,18.00
2022-09-21T19:20:57.927Z,18.00
2022-09-21T19:23:18.004Z,17.99
2022-09-21T19:25:31.055Z,17.97
2022-09-21T19:27:39.700Z,17.97
2022-09-21T19:29:52.268Z,17.99
2022-09-21T19:31:55.843Z,17.98
2022-09-21T19:33:59.116Z,17.97
2022-09-21T19:36:02.628Z,17.97
2022-09-21T19:38:09.871Z,17.96
2022-09-21T19:40:13.644Z,17.92
2022-09-21T19:42:30.061Z,17.93
2022-09-21T19:44:56.311Z,17.92
2022-09-21T19:47:07.383Z,17.93
2022-09-21T19:49:18.446Z,17.96
2022-09-21T19:51:29.049Z,17.93
2022-09-21T19:53:51.960Z,17.89
2022-09-21T19:56:15.597Z,17.87
2022-09-21T19:58:36.443Z,17.88
2022-09-21T20:00:40.263Z,17.87
2022-09-21T20:02:55.780Z,17.87
2022-09-21T20:05:04.086Z,17.87
2022-09-21T20:07:18.996Z,17.84
2022-09-21T20:09:29.572Z,17.83
2022-09-21T20:11:42.945Z,17.82
2022-09-21T20:14:00.021Z,17.82
2022-09-21T20:16:24.287Z,17.81
2022-09-21T20:18:38.525Z,17.77
2022-09-21T20:20:43.228Z,17.76
2022-09-21T20:22:47.068Z,17.76
2022-09-21T20:24:58.079Z,17.78
2022-09-21T20:27:03.555Z,17.80
2022-09-21T20:29:07.190Z,17.78
2022-09-21T20:31:10.560Z,17.81
2022-09-21T20:33:16.071Z,17.75
2022-09-21T20:35:21.947Z,17.76
2022-09-21T20:37:26.251Z,17.76
2022-09-21T20:39:29.442Z,17.81
2022-09-21T20:41:33.973Z,17.83
2022-09-21T20:43:37.095Z,17.83
2022-09-21T20:45:40.796Z,17.84
2022-09-21T20:47:44.276Z,17.86
2022-09-21T20:49:47.771Z,17.89
2022-09-21T20:51:50.706Z,17.88
2022-09-21T20:53:53.837Z,17.90
2022-09-21T20:55:58.848Z,17.93
2022-09-21T20:58:03.137Z,17.92
2022-09-21T21:00:07.905Z,17.91
